Time;durP1;ratioP1;P1;durP2;ratioP2;P2;SDS_P1;SDS_P2;PMS_P1;PMS_P2;Temp;Humidity;BMP_temperature;BMP_pressure;BME280_temperature;BME280_humidity;BME280_pressure;Samples;Min_cycle;Max_cycle;Signal;HPM_P1;HPM_P2
2023/11/27 00:00:59;;;;;;;40.08;25.65;;;3.20;99.90;;;;;;1999466;29;20038;-75
2023/11/27 00:02:00;;;;;;;39.83;25.70;;;3.20;99.90;;;;;;2007522;29;20041;-75
2023/11/27 00:03:01;;;;;;;37.97;25.17;;;3.20;99.90;;;;;;2004575;29;20030;-74
2023/11/27 00:04:01;;;;;;;39.38;25.08;;;3.20;99.90;;;;;;2000703;29;20120;-75
2023/11/27 00:05:02;;;;;;;39.38;24.88;;;3.20;99.90;;;;;;2000228;29;20025;-75
2023/11/27 00:06:03;;;;;;;38.45;25.80;;;3.10;99.90;;;;;;2004463;29;20551;-74
2023/11/27 00:07:04;;;;;;;38.42;25.60;;;3.10;99.90;;;;;;2008321;29;20033;-75
2023/11/27 00:08:05;;;;;;;37.17;23.48;;;3.10;99.90;;;;;;2007606;29;20041;-75
2023/11/27 00:09:06;;;;;;;36.33;24.13;;;3.10;99.90;;;;;;2004423;29;20052;-75
2023/11/27 00:10:07;;;;;;;36.92;23.50;;;3.10;99.90;;;;;;2000184;29;20336;-74
2023/11/27 00:11:08;;;;;;;37.30;23.85;;;3.10;99.90;;;;;;2000014;29;20155;-75
2023/11/27 00:12:08;;;;;;;36.63;23.20;;;3.10;99.90;;;;;;1997606;29;20044;-75
2023/11/27 00:13:09;;;;;;;35.58;23.27;;;3.10;99.90;;;;;;2008231;29;20026;-74
2023/11/27 00:14:10;;;;;;;35.53;23.77;;;3.10;99.90;;;;;;2008909;29;20613;-74
2023/11/27 00:15:11;;;;;;;37.88;22.83;;;3.10;99.90;;;;;;2000122;29;20069;-74
2023/11/27 00:16:12;;;;;;;36.33;22.52;;;3.10;99.90;;;;;;1996846;29;20547;-75
2023/11/27 00:17:12;;;;;;;34.15;22.55;;;3.10;99.90;;;;;;2000228;29;20061;-75
2023/11/27 00:18:13;;;;;;;33.28;21.75;;;3.20;99.90;;;;;;1993812;29;20035;-75
2023/11/27 00:19:14;;;;;;;35.85;22.25;;;3.20;99.90;;;;;;1999314;29;20548;-75
2023/11/27 00:20:14;;;;;;;36.08;22.90;;;3.20;99.90;;;;;;2000438;29;20134;-73
2023/11/27 00:21:19;;;;;;;35.92;22.85;;;3.20;99.90;;;;;;2006122;29;20102;-74
2023/11/27 00:22:20;;;;;;;33.25;22.27;;;3.20;99.90;;;;;;2005901;29;20246;-75
2023/11/27 00:23:20;;;;;;;35.08;21.75;;;3.10;99.90;;;;;;2005397;29;20342;-74
2023/11/27 00:24:21;;;;;;;36.50;23.48;;;3.10;99.90;;;;;;2005862;29;20033;-74
2023/11/27 00:25:22;;;;;;;36.65;22.52;;;3.10;99.90;;;;;;2004256;29;20041;-74
2023/11/27 00:26:23;;;;;;;37.00;22.35;;;3.10;99.90;;;;;;2008589;29;20041;-74
2023/11/27 00:27:28;;;;;;;34.15;21.98;;;3.10;99.90;;;;;;2001144;29;20597;-74
2023/11/27 00:28:29;;;;;;;35.35;21.98;;;3.10;99.90;;;;;;1996691;29;20046;-74
2023/11/27 00:29:30;;;;;;;32.78;21.80;;;3.10;99.90;;;;;;1996815;29;20408;-74
2023/11/27 00:30:31;;;;;;;35.33;21.63;;;3.10;99.90;;;;;;2004443;29;20030;-75
2023/11/27 00:31:32;;;;;;;36.22;22.70;;;3.10;99.90;;;;;;2007443;29;20594;-74
2023/11/27 00:32:33;;;;;;;37.40;22.38;;;3.10;99.90;;;;;;2004322;29;20024;-75
2023/11/27 00:33:38;;;;;;;34.20;22.00;;;3.10;99.90;;;;;;2004380;29;20070;-80
2023/11/27 00:34:38;;;;;;;35.20;22.13;;;3.10;99.90;;;;;;1999820;29;20061;-75
2023/11/27 00:35:39;;;;;;;32.33;21.25;;;3.10;99.90;;;;;;2000583;29;20413;-78
2023/11/27 00:36:39;;;;;;;33.47;21.27;;;3.10;99.90;;;;;;1997155;29;20068;-78
2023/11/27 00:37:40;;;;;;;34.47;21.88;;;3.10;99.90;;;;;;2000199;29;20064;-78
2023/11/27 00:38:41;;;;;;;32.22;21.17;;;3.10;99.90;;;;;;2000978;29;20033;-78
2023/11/27 00:39:41;;;;;;;33.55;21.10;;;3.20;99.90;;;;;;1997213;29;20485;-77
2023/11/27 00:40:46;;;;;;;53.92;33.38;;;3.20;99.90;;;;;;1992166;29;20317;-78
2023/11/27 00:41:46;;;;;;;36.95;23.77;;;3.20;99.90;;;;;;1999732;29;20071;-78
2023/11/27 00:42:47;;;;;;;36.13;22.00;;;3.10;99.90;;;;;;1997834;29;20116;-77
2023/11/27 00:43:48;;;;;;;35.10;21.55;;;3.20;99.90;;;;;;2007313;29;20117;-79
2023/11/27 00:44:48;;;;;;;34.25;22.15;;;3.10;99.90;;;;;;2008603;29;20025;-79
2023/11/27 00:45:49;;;;;;;34.22;21.23;;;3.10;99.90;;;;;;2001685;29;20566;-79
2023/11/27 00:46:50;;;;;;;34.08;20.73;;;3.20;99.90;;;;;;1999317;29;20357;-78
2023/11/27 00:47:50;;;;;;;35.08;21.05;;;3.10;99.90;;;;;;1992760;29;20030;-78
2023/11/27 00:48:51;;;;;;;35.85;21.40;;;3.10;99.90;;;;;;1999099;29;20041;-78
2023/11/27 00:49:51;;;;;;;34.03;21.65;;;3.10;99.90;;;;;;2005291;29;20476;-79
2023/11/27 00:50:52;;;;;;;35.72;22.52;;;3.10;99.90;;;;;;2007836;29;20021;-77
2023/11/27 00:51:53;;;;;;;35.42;21.85;;;3.10;99.90;;;;;;2006309;29;20022;-78
2023/11/27 00:52:54;;;;;;;36.65;21.85;;;3.10;99.90;;;;;;2000754;29;20036;-78
2023/11/27 00:53:54;;;;;;;36.60;22.30;;;3.00;99.90;;;;;;2002162;29;20029;-78
2023/11/27 00:54:55;;;;;;;34.83;21.25;;;3.00;99.90;;;;;;2007113;29;20485;-77
2023/11/27 00:55:55;;;;;;;35.00;22.33;;;3.10;99.90;;;;;;1998414;29;20070;-78
2023/11/27 00:56:56;;;;;;;37.53;22.10;;;3.00;99.90;;;;;;1997500;29;20562;-77
2023/11/27 00:57:57;;;;;;;35.97;21.75;;;3.00;99.90;;;;;;1997242;29;20061;-78
2023/11/27 00:58:57;;;;;;;36.20;21.50;;;3.10;99.90;;;;;;2000462;29;20055;-78
2023/11/27 00:59:58;;;;;;;38.97;22.40;;;3.10;99.90;;;;;;2007587;29;20432;-78
2023/11/27 01:00:58;;;;;;;34.55;22.27;;;3.20;99.90;;;;;;1998146;29;20504;-78
2023/11/27 01:01:59;;;;;;;36.47;22.63;;;3.20;99.90;;;;;;1996986;29;20106;-78
2023/11/27 01:03:00;;;;;;;37.92;23.15;;;3.20;99.90;;;;;;2001107;29;20572;-78
2023/11/27 01:04:00;;;;;;;35.95;22.98;;;3.20;99.90;;;;;;2005586;29;20036;-78
2023/11/27 01:05:03;;;;;;;39.33;23.80;;;3.20;99.90;;;;;;2004988;29;20124;-77
2023/11/27 01:06:04;;;;;;;38.40;23.23;;;3.20;99.90;;;;;;1992936;29;20585;-78
2023/11/27 01:07:05;;;;;;;39.97;23.63;;;3.20;99.90;;;;;;2000456;29;20049;-77
2023/11/27 01:08:06;;;;;;;43.55;24.77;;;3.20;99.90;;;;;;1996811;29;20037;-77
2023/11/27 01:09:06;;;;;;;42.20;23.50;;;3.20;99.90;;;;;;2005118;29;20040;-77
2023/11/27 01:10:08;;;;;;;39.60;23.45;;;3.30;99.90;;;;;;1999530;29;20037;-75
2023/11/27 01:11:09;;;;;;;36.40;22.38;;;3.20;99.90;;;;;;2000075;29;20124;-77
2023/11/27 01:12:09;;;;;;;37.75;22.95;;;3.20;99.90;;;;;;2009715;29;20653;-76
2023/11/27 01:13:10;;;;;;;43.10;24.90;;;3.20;99.90;;;;;;2000038;29;20531;-78
2023/11/27 01:14:11;;;;;;;38.05;23.55;;;3.20;99.90;;;;;;1996687;29;20034;-78
2023/11/27 01:15:11;;;;;;;38.15;23.05;;;3.30;99.90;;;;;;1996393;29;20057;-78
2023/11/27 01:16:12;;;;;;;39.20;22.52;;;3.30;99.90;;;;;;2000076;29;20050;-78
2023/11/27 01:17:13;;;;;;;39.88;23.45;;;3.20;99.90;;;;;;2000249;29;20124;-78
2023/11/27 01:18:13;;;;;;;35.53;22.27;;;3.20;99.90;;;;;;1997361;29;20106;-78
2023/11/27 01:19:14;;;;;;;36.60;22.40;;;3.10;99.90;;;;;;1991846;29;20038;-78
2023/11/27 01:20:15;;;;;;;37.47;21.58;;;3.10;99.90;;;;;;2000513;29;20026;-78
2023/11/27 01:21:16;;;;;;;37.72;22.63;;;3.10;99.90;;;;;;1997749;29;20124;-78
2023/11/27 01:22:17;;;;;;;41.20;23.40;;;3.10;99.90;;;;;;1999038;29;20524;-78
2023/11/27 01:23:19;;;;;;;41.90;24.23;;;3.10;99.90;;;;;;2000718;29;20086;-78
2023/11/27 01:24:20;;;;;;;43.72;24.30;;;3.10;99.90;;;;;;1998229;29;20178;-79
2023/11/27 01:25:21;;;;;;;41.83;23.58;;;3.20;99.90;;;;;;2007313;29;20110;-77
2023/11/27 01:26:21;;;;;;;39.42;23.27;;;3.10;99.90;;;;;;1999736;29;20512;-77
2023/11/27 01:27:22;;;;;;;44.03;24.50;;;3.10;99.90;;;;;;1990410;29;20053;-77
2023/11/27 01:28:22;;;;;;;42.80;24.25;;;3.10;99.90;;;;;;1998761;29;20038;-76
2023/11/27 01:29:23;;;;;;;42.10;23.63;;;3.10;99.90;;;;;;2007831;29;20093;-78
2023/11/27 01:30:23;;;;;;;39.75;23.23;;;3.20;99.90;;;;;;1997214;29;20106;-77
2023/11/27 01:31:24;;;;;;;39.38;23.42;;;3.20;99.90;;;;;;2000134;29;20033;-77
2023/11/27 01:32:26;;;;;;;36.65;22.52;;;3.20;99.90;;;;;;1997051;29;20026;-78
2023/11/27 01:33:26;;;;;;;42.42;23.30;;;3.10;99.90;;;;;;1998720;29;20038;-78
2023/11/27 01:34:27;;;;;;;39.30;22.85;;;3.20;99.90;;;;;;2006271;29;20381;-77
2023/11/27 01:35:28;;;;;;;39.13;23.00;;;3.10;99.90;;;;;;2005151;29;20468;-79
2023/11/27 01:36:30;;;;;;;36.60;21.38;;;3.20;99.90;;;;;;2004739;29;20597;-77
2023/11/27 01:37:31;;;;;;;32.22;19.73;;;3.20;99.90;;;;;;1996691;29;20473;-77
2023/11/27 01:38:32;;;;;;;31.40;19.23;;;3.20;99.90;;;;;;1996675;29;20158;-77
2023/11/27 01:39:32;;;;;;;33.05;19.52;;;3.20;99.90;;;;;;1999733;29;20037;-77
2023/11/27 01:40:34;;;;;;;29.27;18.42;;;3.30;99.90;;;;;;2006222;29;20028;-79
2023/11/27 01:41:35;;;;;;;31.88;19.65;;;3.30;99.90;;;;;;2000656;29;20481;-79
2023/11/27 01:42:35;;;;;;;33.38;20.10;;;3.30;99.90;;;;;;1993651;29;20033;-80
2023/11/27 01:43:36;;;;;;;31.10;19.38;;;3.30;99.90;;;;;;2004241;29;20082;-80
2023/11/27 01:44:37;;;;;;;29.80;18.65;;;3.30;99.90;;;;;;2008622;29;20117;-80
2023/11/27 01:45:38;;;;;;;29.17;17.98;;;3.30;99.90;;;;;;2004874;29;20510;-81
2023/11/27 01:46:44;;;;;;;29.15;16.90;;;3.30;99.90;;;;;;2001006;29;20097;-80
2023/11/27 01:47:45;;;;;;;29.33;18.00;;;3.20;99.90;;;;;;1987604;29;20034;-79
2023/11/27 01:48:46;;;;;;;26.98;17.02;;;3.30;99.90;;;;;;2000505;29;20069;-80
2023/11/27 01:49:46;;;;;;;25.67;16.02;;;3.30;99.90;;;;;;2002139;29;20046;-80
2023/11/27 01:50:47;;;;;;;27.60;16.55;;;3.30;99.90;;;;;;2001252;29;20083;-79
2023/11/27 01:51:50;;;;;;;26.33;17.00;;;3.20;99.90;;;;;;2008000;29;20453;-78
2023/11/27 01:52:50;;;;;;;28.65;16.80;;;3.20;99.90;;;;;;2000993;29;20048;-81
2023/11/27 01:53:55;;;;;;;23.75;15.02;;;3.20;99.90;;;;;;1998935;29;20041;-81
2023/11/27 01:54:57;;;;;;;24.85;15.05;;;3.20;99.90;;;;;;2006717;29;20405;-80
2023/11/27 01:55:58;;;;;;;25.77;15.20;;;3.20;99.90;;;;;;2002649;29;20704;-81
2023/11/27 01:57:00;;;;;;;24.75;14.82;;;3.20;99.90;;;;;;2009134;29;20025;-80
2023/11/27 01:58:01;;;;;;;24.10;15.02;;;3.20;99.90;;;;;;1999763;29;20380;-79
2023/11/27 01:59:01;;;;;;;26.23;15.70;;;3.20;99.90;;;;;;1998062;29;20030;-80
2023/11/27 02:00:05;;;;;;;24.52;14.70;;;3.20;99.90;;;;;;1997211;29;20524;-79
2023/11/27 02:01:13;;;;;;;23.98;14.80;;;3.20;99.90;;;;;;2000850;29;20088;-80
2023/11/27 02:02:15;;;;;;;22.40;14.38;;;3.20;99.90;;;;;;2011577;29;20040;-81
2023/11/27 02:03:16;;;;;;;25.63;14.65;;;3.10;99.90;;;;;;2003822;29;20025;-81
2023/11/27 02:04:17;;;;;;;22.55;13.43;;;3.10;99.90;;;;;;2001328;29;20516;-81
2023/11/27 02:05:17;;;;;;;22.38;13.68;;;3.10;99.90;;;;;;2003009;29;20101;-80
2023/11/27 02:06:18;;;;;;;21.30;13.68;;;3.20;99.90;;;;;;2004058;29;20108;-80
2023/11/27 02:07:18;;;;;;;21.08;13.80;;;3.20;99.90;;;;;;2010058;29;20112;-79
2023/11/27 02:08:19;;;;;;;20.15;12.82;;;3.10;99.90;;;;;;2011352;29;20512;-79
2023/11/27 02:09:20;;;;;;;20.75;13.18;;;3.10;99.90;;;;;;2013418;29;20074;-79
2023/11/27 02:10:21;;;;;;;19.88;13.00;;;3.10;99.90;;;;;;2009865;29;20072;-78
2023/11/27 02:11:22;;;;;;;19.95;12.35;;;3.10;99.90;;;;;;2013324;29;20441;-77
2023/11/27 02:12:23;;;;;;;19.80;12.32;;;3.10;99.90;;;;;;2008470;29;20037;-78
2023/11/27 02:13:25;;;;;;;18.77;12.20;;;3.10;99.90;;;;;;1996931;29;20071;-78
2023/11/27 02:14:26;;;;;;;20.58;12.23;;;3.10;99.90;;;;;;2003403;29;20026;-78
2023/11/27 02:15:26;;;;;;;19.27;12.13;;;3.10;99.90;;;;;;2009774;29;20520;-78
2023/11/27 02:16:27;;;;;;;19.40;11.75;;;3.10;99.90;;;;;;2008091;29;20042;-79
2023/11/27 02:17:28;;;;;;;18.17;11.98;;;3.10;99.90;;;;;;2007627;29;20319;-79
2023/11/27 02:18:29;;;;;;;21.15;12.50;;;3.10;99.90;;;;;;2010115;29;20033;-80
2023/11/27 02:19:29;;;;;;;19.17;12.65;;;3.00;99.90;;;;;;2009555;29;20033;-78
2023/11/27 02:20:30;;;;;;;20.38;12.57;;;3.00;99.90;;;;;;2009293;29;20048;-80
2023/11/27 02:21:31;;;;;;;18.80;12.25;;;3.00;99.90;;;;;;1996503;29;20102;-79
2023/11/27 02:22:31;;;;;;;19.05;11.68;;;3.00;99.90;;;;;;1998932;29;20041;-79
2023/11/27 02:23:32;;;;;;;18.35;11.98;;;3.00;99.90;;;;;;2004366;29;20045;-79
2023/11/27 02:24:32;;;;;;;19.55;13.07;;;3.00;99.90;;;;;;1987346;29;20035;-79
2023/11/27 02:25:33;;;;;;;20.15;13.05;;;2.90;99.90;;;;;;1992346;29;20042;-79
2023/11/27 02:26:34;;;;;;;21.15;12.38;;;2.90;99.90;;;;;;1999380;29;20109;-79
2023/11/27 02:27:34;;;;;;;19.13;12.32;;;2.90;99.90;;;;;;1989721;29;20058;-79
2023/11/27 02:28:35;;;;;;;19.75;12.52;;;2.90;99.90;;;;;;1993184;29;20034;-79
2023/11/27 02:29:36;;;;;;;19.88;12.63;;;2.90;99.90;;;;;;2000380;29;20106;-80
2023/11/27 02:30:36;;;;;;;19.15;12.30;;;3.00;99.90;;;;;;1999840;29;20605;-80
2023/11/27 02:31:37;;;;;;;18.05;12.32;;;3.00;99.90;;;;;;1997285;29;20033;-80
2023/11/27 02:32:38;;;;;;;19.90;12.85;;;3.00;99.90;;;;;;1994702;29;20778;-80
2023/11/27 02:33:39;;;;;;;18.63;12.07;;;3.00;99.90;;;;;;2000607;29;20033;-80
2023/11/27 02:34:44;;;;;;;20.88;12.43;;;3.00;99.90;;;;;;2001175;29;20279;-80
2023/11/27 02:35:45;;;;;;;20.27;12.98;;;3.00;99.90;;;;;;1996859;29;20512;-79
2023/11/27 02:36:45;;;;;;;21.75;12.63;;;3.00;99.90;;;;;;1991848;29;20094;-79
2023/11/27 02:37:46;;;;;;;19.85;13.10;;;3.00;99.90;;;;;;1996940;29;20082;-79
2023/11/27 02:38:47;;;;;;;19.30;12.88;;;3.00;99.90;;;;;;1996552;29;20564;-79
2023/11/27 02:39:47;;;;;;;19.92;13.52;;;3.00;99.90;;;;;;1996240;29;20161;-78
2023/11/27 02:40:48;;;;;;;18.95;13.02;;;3.00;99.90;;;;;;1989494;29;20098;-80
2023/11/27 02:41:49;;;;;;;20.63;13.57;;;3.00;99.90;;;;;;1996577;29;20084;-79
2023/11/27 02:42:49;;;;;;;21.33;13.25;;;2.90;99.90;;;;;;2008252;29;20028;-79
2023/11/27 02:43:50;;;;;;;19.85;13.32;;;2.90;99.90;;;;;;2004251;29;20327;-79
2023/11/27 02:44:52;;;;;;;18.92;12.85;;;2.90;99.90;;;;;;1996784;29;20030;-79
2023/11/27 02:45:53;;;;;;;21.15;13.38;;;2.90;99.90;;;;;;1999602;29;20021;-79
2023/11/27 02:46:54;;;;;;;21.40;13.88;;;2.80;99.90;;;;;;1995730;29;20046;-78
2023/11/27 02:47:54;;;;;;;23.42;13.50;;;2.90;99.90;;;;;;2008953;29;20085;-79
2023/11/27 02:48:55;;;;;;;19.80;12.70;;;2.80;99.90;;;;;;2003978;29;20328;-79
2023/11/27 02:49:55;;;;;;;21.10;13.60;;;2.80;99.90;;;;;;2006745;29;20060;-79
2023/11/27 02:50:56;;;;;;;20.80;12.98;;;2.90;99.90;;;;;;2006112;29;20400;-79
2023/11/27 02:51:56;;;;;;;18.92;12.90;;;2.90;99.90;;;;;;2000062;29;20048;-78
2023/11/27 02:52:57;;;;;;;20.23;13.35;;;2.90;99.90;;;;;;1998255;29;20034;-79
2023/11/27 02:53:58;;;;;;;21.15;13.82;;;2.80;99.90;;;;;;1998467;29;20500;-79
2023/11/27 02:54:58;;;;;;;21.98;14.63;;;2.80;99.90;;;;;;2008387;29;20095;-79
2023/11/27 02:55:59;;;;;;;22.25;13.90;;;2.80;99.90;;;;;;2005062;29;20064;-79
2023/11/27 02:56:59;;;;;;;19.33;13.45;;;2.70;99.90;;;;;;2004961;29;20507;-79
2023/11/27 02:58:00;;;;;;;18.92;12.93;;;2.70;99.90;;;;;;2000014;29;20041;-79
2023/11/27 02:59:01;;;;;;;20.58;13.38;;;2.70;99.90;;;;;;1993100;29;20130;-79
2023/11/27 03:00:03;;;;;;;20.17;13.40;;;2.70;99.90;;;;;;2006782;29;20489;-79
2023/11/27 03:01:07;;;;;;;24.42;14.38;;;2.70;99.90;;;;;;2005574;29;20442;-78
2023/11/27 03:02:08;;;;;;;24.50;15.00;;;2.60;99.90;;;;;;1999955;29;20050;-80
2023/11/27 03:03:08;;;;;;;33.30;17.88;;;2.60;99.90;;;;;;1996598;29;20070;-79
2023/11/27 03:04:09;;;;;;;32.60;17.90;;;2.60;99.90;;;;;;2000115;29;20029;-80
2023/11/27 03:05:10;;;;;;;31.25;17.08;;;2.60;99.90;;;;;;1999583;29;20030;-79
2023/11/27 03:06:11;;;;;;;27.80;16.58;;;2.60;99.90;;;;;;2008380;29;20455;-79
2023/11/27 03:07:11;;;;;;;25.13;14.07;;;2.60;99.90;;;;;;1999652;29;20067;-80
2023/11/27 03:08:12;;;;;;;21.33;13.80;;;2.60;99.90;;;;;;1999566;29;20703;-78
2023/11/27 03:09:16;;;;;;;19.40;13.05;;;2.60;99.90;;;;;;2004406;29;20041;-79
2023/11/27 03:10:17;;;;;;;19.48;13.25;;;2.60;99.90;;;;;;2006828;29;20081;-79
2023/11/27 03:11:18;;;;;;;21.10;13.40;;;2.60;99.90;;;;;;2007516;29;20041;-80
2023/11/27 03:12:18;;;;;;;20.20;12.88;;;2.60;99.90;;;;;;2006418;29;20067;-79
2023/11/27 03:13:19;;;;;;;18.88;12.55;;;2.70;99.90;;;;;;2006490;29;20226;-79
2023/11/27 03:14:19;;;;;;;17.23;12.00;;;2.70;99.90;;;;;;1999947;29;20029;-79
2023/11/27 03:15:20;;;;;;;19.65;12.52;;;2.80;99.90;;;;;;1996775;29;20038;-78
2023/11/27 03:16:21;;;;;;;21.92;13.02;;;2.70;99.90;;;;;;1998918;29;20174;-79
2023/11/27 03:17:23;;;;;;;17.75;12.43;;;2.70;99.90;;;;;;1999799;29;20045;-79
2023/11/27 03:18:23;;;;;;;18.45;12.57;;;2.70;99.90;;;;;;1997741;29;20038;-78
2023/11/27 03:19:24;;;;;;;18.63;13.32;;;2.60;99.90;;;;;;2006329;29;20021;-78
2023/11/27 03:20:24;;;;;;;20.67;12.85;;;2.70;99.90;;;;;;2007463;29;20112;-78
2023/11/27 03:21:26;;;;;;;20.75;12.98;;;2.70;99.90;;;;;;2005421;29;20506;-78
2023/11/27 03:22:26;;;;;;;20.73;13.20;;;2.70;99.90;;;;;;2005724;29;20465;-79
2023/11/27 03:23:27;;;;;;;20.45;13.55;;;2.80;99.90;;;;;;2004718;29;20044;-78
2023/11/27 03:24:28;;;;;;;21.52;13.70;;;2.80;99.90;;;;;;2004278;29;20029;-78
2023/11/27 03:25:28;;;;;;;21.38;14.10;;;2.80;99.90;;;;;;2006725;29;20029;-78
2023/11/27 03:26:29;;;;;;;21.85;14.93;;;2.80;99.90;;;;;;2006292;29;20036;-79
2023/11/27 03:27:30;;;;;;;22.10;14.50;;;2.80;99.90;;;;;;1999279;29;20769;-78
2023/11/27 03:28:30;;;;;;;25.92;15.63;;;2.70;99.90;;;;;;1998445;29;20206;-78
2023/11/27 03:29:31;;;;;;;23.10;15.95;;;2.70;99.90;;;;;;1997462;29;20066;-78
2023/11/27 03:30:32;;;;;;;25.02;15.90;;;2.70;99.90;;;;;;1999479;29;20580;-78
2023/11/27 03:31:33;;;;;;;22.75;15.25;;;2.60;99.90;;;;;;1999297;29;20033;-77
2023/11/27 03:32:33;;;;;;;22.75;15.32;;;2.60;99.90;;;;;;1994239;29;25694;-78
2023/11/27 03:33:35;;;;;;;23.00;15.60;;;2.60;99.90;;;;;;1997454;29;20030;-78
2023/11/27 03:34:35;;;;;;;26.30;16.45;;;2.70;99.90;;;;;;1997490;29;20038;-78
2023/11/27 03:35:36;;;;;;;26.42;16.90;;;2.60;99.90;;;;;;1997396;29;20268;-78
2023/11/27 03:36:38;;;;;;;24.88;16.83;;;2.60;99.90;;;;;;1997679;29;20519;-78
2023/11/27 03:37:38;;;;;;;26.55;17.25;;;2.60;99.90;;;;;;2009765;29;20081;-78
2023/11/27 03:38:39;;;;;;;28.27;18.73;;;2.60;99.90;;;;;;2008704;29;20032;-78
2023/11/27 03:39:39;;;;;;;27.80;18.13;;;2.60;99.90;;;;;;2006602;29;20037;-78
2023/11/27 03:40:40;;;;;;;27.20;18.20;;;2.60;99.90;;;;;;2001341;29;20109;-78
2023/11/27 03:41:40;;;;;;;26.63;18.05;;;2.60;99.90;;;;;;2000621;29;20031;-78
2023/11/27 03:42:41;;;;;;;29.27;18.77;;;2.60;99.90;;;;;;2005490;29;20029;-79
2023/11/27 03:43:43;;;;;;;30.40;19.10;;;2.60;99.90;;;;;;2009035;29;20404;-78
2023/11/27 03:44:44;;;;;;;29.65;19.20;;;2.60;99.90;;;;;;2009555;29;20040;-79
2023/11/27 03:45:44;;;;;;;29.98;19.52;;;2.60;99.90;;;;;;2009278;29;20089;-79
2023/11/27 03:46:45;;;;;;;30.35;18.75;;;2.60;99.90;;;;;;1997518;29;20389;-78
2023/11/27 03:47:45;;;;;;;28.45;18.60;;;2.60;99.90;;;;;;2000837;29;20255;-78
2023/11/27 03:48:46;;;;;;;30.67;19.75;;;2.50;99.90;;;;;;2000961;29;20042;-78
2023/11/27 03:49:47;;;;;;;28.90;18.98;;;2.50;99.90;;;;;;1997907;29;20033;-79
2023/11/27 03:50:47;;;;;;;29.42;18.10;;;2.50;99.90;;;;;;2009157;29;20105;-79
2023/11/27 03:51:48;;;;;;;31.38;19.77;;;2.40;99.90;;;;;;2009602;29;20566;-79
2023/11/27 03:52:48;;;;;;;28.95;19.02;;;2.50;99.90;;;;;;1997650;29;20116;-79
2023/11/27 03:53:50;;;;;;;30.13;19.30;;;2.50;99.90;;;;;;2000781;29;20049;-80
2023/11/27 03:54:52;;;;;;;30.52;19.02;;;2.50;99.90;;;;;;2001342;29;20405;-78
2023/11/27 03:55:53;;;;;;;29.30;18.65;;;2.40;99.90;;;;;;1998270;29;20040;-79
2023/11/27 03:56:54;;;;;;;28.45;18.45;;;2.40;99.90;;;;;;2008700;29;20040;-78
2023/11/27 03:57:54;;;;;;;32.13;19.35;;;2.40;99.90;;;;;;2001048;29;20053;-78
2023/11/27 03:58:55;;;;;;;30.25;18.92;;;2.40;99.90;;;;;;1998620;29;20037;-78
2023/11/27 03:59:55;;;;;;;28.65;18.85;;;2.40;99.90;;;;;;2000026;29;20030;-79
2023/11/27 04:00:57;;;;;;;30.33;19.23;;;2.40;99.90;;;;;;2006882;29;20029;-78
2023/11/27 04:01:58;;;;;;;30.02;19.40;;;2.40;99.90;;;;;;2005468;29;20033;-79
2023/11/27 04:02:59;;;;;;;29.63;19.25;;;2.40;99.90;;;;;;2007309;29;20092;-79
2023/11/27 04:03:59;;;;;;;29.88;19.25;;;2.30;99.90;;;;;;1999414;29;20108;-79
2023/11/27 04:05:01;;;;;;;29.10;19.33;;;2.30;99.90;;;;;;2000530;29;20088;-79
2023/11/27 04:06:04;;;;;;;31.77;19.58;;;2.40;99.90;;;;;;2009346;29;20522;-78
2023/11/27 04:07:05;;;;;;;30.70;20.05;;;2.40;99.90;;;;;;1999580;29;20090;-78
2023/11/27 04:08:07;;;;;;;29.27;19.52;;;2.40;99.90;;;;;;1998646;29;20042;-77
2023/11/27 04:09:12;;;;;;;29.85;19.88;;;2.30;99.90;;;;;;1997507;29;20071;-80
2023/11/27 04:10:18;;;;;;;32.17;20.85;;;2.30;99.90;;;;;;1997652;29;20078;-79
2023/11/27 04:11:19;;;;;;;31.30;20.10;;;2.30;99.90;;;;;;2005382;29;20029;-79
2023/11/27 04:12:19;;;;;;;30.90;20.40;;;2.30;99.90;;;;;;2011060;29;20060;-80
2023/11/27 04:13:21;;;;;;;31.73;20.67;;;2.30;99.90;;;;;;1997661;29;20022;-80
2023/11/27 04:14:22;;;;;;;31.90;20.98;;;2.30;99.90;;;;;;2000347;29;20469;-79
2023/11/27 04:15:23;;;;;;;34.28;21.65;;;2.30;99.90;;;;;;2000965;29;20375;-80
2023/11/27 04:16:24;;;;;;;30.52;20.40;;;2.30;99.90;;;;;;1996919;29;20026;-79
2023/11/27 04:17:24;;;;;;;33.00;21.45;;;2.30;99.90;;;;;;1997623;29;20498;-78
2023/11/27 04:18:25;;;;;;;31.25;20.45;;;2.40;99.90;;;;;;2000438;29;20049;-80
2023/11/27 04:19:26;;;;;;;32.75;21.10;;;2.40;99.90;;;;;;1998183;29;20030;-78
2023/11/27 04:20:27;;;;;;;31.75;20.48;;;2.40;99.90;;;;;;2007824;29;20066;-79
2023/11/27 04:21:27;;;;;;;34.90;21.45;;;2.40;99.90;;;;;;2000501;29;20061;-79
2023/11/27 04:22:28;;;;;;;32.53;21.15;;;2.40;99.90;;;;;;2001943;29;20548;-79
2023/11/27 04:23:30;;;;;;;34.20;21.55;;;2.30;99.90;;;;;;2007504;29;20444;-79
2023/11/27 04:24:30;;;;;;;32.22;20.52;;;2.40;99.90;;;;;;2000634;29;20061;-79
2023/11/27 04:25:31;;;;;;;31.65;20.25;;;2.30;99.90;;;;;;1998800;29;20512;-79
2023/11/27 04:26:32;;;;;;;33.00;20.80;;;2.40;99.90;;;;;;2007036;29;20144;-79
2023/11/27 04:27:32;;;;;;;32.70;20.48;;;2.40;99.90;;;;;;2004896;29;20032;-78
2023/11/27 04:28:33;;;;;;;32.95;20.92;;;2.30;99.90;;;;;;2008039;29;20510;-78
2023/11/27 04:29:34;;;;;;;33.80;22.10;;;2.30;99.90;;;;;;1998966;29;20105;-78
2023/11/27 04:30:34;;;;;;;33.55;22.20;;;2.30;99.90;;;;;;1998409;29;20033;-78
2023/11/27 04:31:35;;;;;;;33.22;21.00;;;2.30;99.90;;;;;;2008827;29;20574;-78
2023/11/27 04:32:36;;;;;;;31.90;20.63;;;2.30;99.90;;;;;;1994780;29;21091;-79
2023/11/27 04:33:37;;;;;;;33.50;21.15;;;2.30;99.90;;;;;;1997887;29;20054;-79
2023/11/27 04:34:37;;;;;;;35.25;21.80;;;2.40;99.90;;;;;;2005333;29;20037;-78
2023/11/27 04:35:39;;;;;;;32.83;20.83;;;2.30;99.90;;;;;;1993009;29;20026;-79
2023/11/27 04:36:39;;;;;;;36.25;22.80;;;2.30;99.90;;;;;;1997060;29;20049;-79
2023/11/27 04:37:40;;;;;;;33.53;21.85;;;2.30;99.90;;;;;;2004983;29;20571;-79
2023/11/27 04:38:40;;;;;;;32.25;21.25;;;2.30;99.90;;;;;;2008739;29;20041;-79
2023/11/27 04:39:43;;;;;;;33.65;21.27;;;2.30;99.90;;;;;;2009317;29;20089;-80
2023/11/27 04:40:44;;;;;;;33.50;21.45;;;2.30;99.90;;;;;;2008113;29;20040;-78
2023/11/27 04:41:46;;;;;;;34.83;21.95;;;2.40;99.90;;;;;;2011797;29;20041;-79
2023/11/27 04:42:46;;;;;;;30.92;20.00;;;2.40;99.90;;;;;;2001976;29;20202;-78
2023/11/27 04:43:47;;;;;;;32.05;20.50;;;2.40;99.90;;;;;;1998109;29;20030;-78
2023/11/27 04:44:47;;;;;;;32.50;21.23;;;2.40;99.90;;;;;;2009162;29;20036;-80
2023/11/27 04:45:48;;;;;;;35.08;21.80;;;2.40;99.90;;;;;;2008284;29;20044;-78
2023/11/27 04:46:50;;;;;;;33.10;20.70;;;2.30;99.90;;;;;;2005090;29;20037;-79
2023/11/27 04:47:50;;;;;;;32.60;20.83;;;2.40;99.90;;;;;;2008022;29;20037;-78
2023/11/27 04:48:51;;;;;;;32.15;20.63;;;2.30;99.90;;;;;;2005005;29;20033;-79
2023/11/27 04:49:51;;;;;;;32.40;20.27;;;2.30;99.90;;;;;;2008457;29;20096;-79
2023/11/27 04:50:52;;;;;;;33.03;20.73;;;2.30;99.90;;;;;;2005690;29;20314;-79
2023/11/27 04:51:52;;;;;;;33.20;20.83;;;2.40;99.90;;;;;;2008326;29;20033;-78
2023/11/27 04:52:53;;;;;;;34.08;21.38;;;2.40;99.90;;;;;;2001069;29;20028;-80
2023/11/27 04:53:54;;;;;;;31.55;20.55;;;2.30;99.90;;;;;;1998216;29;20026;-78
2023/11/27 04:54:54;;;;;;;34.25;21.48;;;2.30;99.90;;;;;;2000151;29;20484;-81
2023/11/27 04:55:55;;;;;;;32.45;21.10;;;2.30;99.90;;;;;;2008598;29;20036;-79
2023/11/27 04:56:56;;;;;;;33.40;21.45;;;2.30;99.90;;;;;;2003823;29;20161;-79
2023/11/27 04:57:58;;;;;;;32.55;21.65;;;2.40;99.90;;;;;;2000331;29;20057;-79
2023/11/27 04:58:58;;;;;;;33.53;22.25;;;2.30;99.90;;;;;;2000807;29;20026;-79
2023/11/27 05:00:00;;;;;;;32.25;21.15;;;2.30;99.90;;;;;;2006800;29;20078;-79
2023/11/27 05:01:03;;;;;;;33.90;21.92;;;2.30;99.90;;;;;;2011513;29;20461;-79
2023/11/27 05:02:04;;;;;;;35.47;22.05;;;2.30;99.90;;;;;;2009868;29;20060;-79
2023/11/27 05:03:04;;;;;;;34.53;21.75;;;2.30;99.90;;;;;;2014128;29;20032;-78
2023/11/27 05:04:05;;;;;;;35.53;22.38;;;2.30;99.90;;;;;;2013402;29;20041;-79
2023/11/27 05:05:06;;;;;;;32.97;22.10;;;2.30;99.90;;;;;;2005766;29;20855;-79
2023/11/27 05:06:06;;;;;;;35.15;22.35;;;2.30;99.90;;;;;;2005423;29;20373;-79
2023/11/27 05:07:07;;;;;;;35.10;22.52;;;2.30;99.90;;;;;;1996568;29;20037;-79
2023/11/27 05:08:07;;;;;;;33.55;20.88;;;2.40;99.90;;;;;;1998794;29;20038;-80
2023/11/27 05:09:08;;;;;;;34.03;20.75;;;2.30;99.90;;;;;;2006093;29;20021;-79
2023/11/27 05:10:10;;;;;;;34.08;20.90;;;2.30;99.90;;;;;;2004866;29;20104;-79
2023/11/27 05:11:19;;;;;;;36.65;22.83;;;2.30;99.90;;;;;;2008131;29;20034;-80
2023/11/27 05:12:19;;;;;;;42.15;24.70;;;2.40;99.90;;;;;;2005908;29;20066;-79
2023/11/27 05:13:20;;;;;;;34.80;21.77;;;2.40;99.90;;;;;;2005054;29;20496;-79